Loretto, PA

2:49 PM EDT on September 20, 2014 (GMT -0400)
Colver | Change Station
CLOSE
Current Station
Personal Weather Station
Location: Colver Streets, PA
Elevation: 2149 ft
Nearby Weather Stations

Elev 2149 ft 40.54 °N, 78.79 °W | Updated 12 minutes ago

Partly Cloudy
Partly Cloudy
74.5 °F
Feels Like 77 °F
N
0.0
Wind Variable Wind from South
Gusts 3.0 mph

Today
High -- | Low -- °F
--% Chance of Precip.
Yesterday
High -- | Low -- °F
Precip. -- in
7:00 AM 7:15 PM
Waning Crescent, 11% visible
Pressure 30.11 in
Visibility 10.0 miles
Clouds Scattered Clouds 4500 ft
Mostly Cloudy 6000 ft
Heat Index 77 °F
Dew Point 61 °F
Humidity 63%
Rainfall 0.00 in
Snow Depth Not available.
UV 4 out of 12
Pollen 4.20 out of 12
Air Quality Not available.
Flu Activity Not available.
METAR KJST 201754Z AUTO 22011G18KT 10SM SCT045 BKN060 23/12 A3013 RMK AO2 SLP194 T02280117 10239 20139 58023

More Conditions Fewer Conditions

Pressure 30.11 in
Visibility 10.0 miles
Clouds Scattered Clouds 4500 ft
Mostly Cloudy 6000 ft
Heat Index 77 °F
Dew Point 61 °F
Humidity 63%
Rainfall 0.00 in
Snow Depth Not available.
UV 4 out of 12
Pollen 4.20 out of 12
Air Quality Not available.
Flu Activity Not available.
METAR KJST 201754Z AUTO 22011G18KT 10SM SCT045 BKN060 23/12 A3013 RMK AO2 SLP194 T02280117 10239 20139 58023

More Conditions Fewer Conditions

10-Day Weather Forecast

Almanac

Astronomy

Sep. 20, 2014 Rise Set
Actual Time 7:00 AM EDT 7:15 PM EDT
Civil Twilight 6:32 AM EDT 7:42 PM EDT
Nautical Twilight 6:00 AM EDT 8:14 PM EDT
Astronomical Twilight 5:28 AM EDT 8:46 PM EDT
Moon 3:37 AM EDT 5:18 PM EDT
Length of Visible Light 13h 09m
Length of Day
12h 14m
Tomorrow will be 2m 39s shorter.
Waning Crescent, 11% of the Moon is Illuminated
Today
Waning Crescent
Sep 24
New
Oct 1
First Quarter
Oct 8
Full
Oct 15
Last Quarter

Today's Extremes

State Highs State Lows

Community

WunderPhotos

Upload Photos

1,754,923 photos uploaded!

WunderBlogs® & News

Nearby

Snow Depth

Station Depth Elevation
No new snow has been reported.

Earthquake Activity

City Distance Mag. Time & Date
No recent earthquake activity has been reported nearby.
Minimum magnitude displayed is 2.5.

Coastal Water Temperatures

Place Temperature
No Stations Reporting

Nearby Weather Stations